CheckWX is a tool to help pilots better visualize weather data.  It is not intended as a substitute for an official pre-flight weather briefing.

10:43:26 UTC

KLAX TAF
Los Angeles International Airport
Los Angeles, California, USA
KLAX 180910Z 1809/1912 VRB03KT P6SM SCT250 FM181700 26006KT P6SM SCT250 FM182000 26012KT P6SM SCT250 FM190400 26006KT P6SM SCT250 FM190900 VRB03KT P6SM SCT250

Apr-18@
09:00 UTC

Apr-18 @ 09:00 UTC

Apr-18@
17:00 UTC

Apr-18 @ 17:00 UTC

KLAX 180910Z 1809/1912 VRB03KT P6SM SCT250
Wind
  • Variable at 3 KTS
Cloud Levels
  • Scattered at 25,000' AGL

Apr-18@
17:00 UTC

Apr-18 @ 17:00 UTC

Apr-18@
20:00 UTC

Apr-18 @ 20:00 UTC

FM181700 26006KT P6SM SCT250

From

From Standard forecast or significant change

Wind
  • 260° at 6 KTS
Cloud Levels
  • Scattered at 25,000' AGL

Apr-18@
20:00 UTC

Apr-18 @ 20:00 UTC

Apr-19@
04:00 UTC

Apr-19 @ 04:00 UTC

FM182000 26012KT P6SM SCT250

From

From Standard forecast or significant change

Wind
  • 260° at 12 KTS
Cloud Levels
  • Scattered at 25,000' AGL

Apr-19@
04:00 UTC

Apr-19 @ 04:00 UTC

Apr-19@
09:00 UTC

Apr-19 @ 09:00 UTC

FM190400 26006KT P6SM SCT250

From

From Standard forecast or significant change

Wind
  • 260° at 6 KTS
Cloud Levels
  • Scattered at 25,000' AGL

Apr-19@
09:00 UTC

Apr-19 @ 09:00 UTC

Apr-19@
12:00 UTC

Apr-19 @ 12:00 UTC

FM190900 VRB03KT P6SM SCT250

From

From Standard forecast or significant change

Wind
  • Variable at 3 KTS
Cloud Levels
  • Scattered at 25,000' AGL